Sankoushin — JD2465 — position and weather

sailwx.info

Track history (hours):
 
Tides and Currents Weather Stations Pressure Air Temp Water Temp Dewpoint Dewpoint Depression Visibility Wind Speed Wind Dir Waves Ship Positions

Sankoushin

Last reported at 2014-Nov-19 16:30 UTC. Time now 2014-Nov-21 16:39 UTC.
Position N 34°37' E 134°55'.

Length 71 m; draft 4.2 m.

Type: Cargo ship. MMSI: 431000269.

Date/timePositionNaut miles runAvg speedWind from/ knotsBaromVisibWave heightAir tempDewpointWater temp
2014-Nov-19 16:30N 34°37' E 134°55'8 8.6
2014-Nov-19 15:33N 34°35' E 135°05'1110.8
2014-Nov-19 14:33N 34°24' E 135°04'10 9.6
2014-Nov-19 13:33N 34°15' E 135°05'2 1.7
2014-Nov-19 12:33N 34°15' E 135°07'0 0.0
2014-Nov-19 11:33N 34°15' E 135°07'0 0.0
2014-Nov-19 10:13N 34°15' E 135°07'0 0.1
2014-Nov-19 09:33N 34°15' E 135°07'0 0.0
2014-Nov-19 08:33N 34°15' E 135°07'0 0.0
2014-Nov-19 07:33N 34°15' E 135°07'0 0.0
2014-Nov-19 06:33N 34°15' E 135°07'0 0.0
2014-Nov-19 05:33N 34°15' E 135°07'0 0.0
2014-Nov-19 04:33N 34°15' E 135°07'1 0.5
2014-Nov-19 03:33N 34°14' E 135°07'0 0.1
2014-Nov-19 02:33N 34°14' E 135°06'0 0.0
2014-Nov-19 01:30N 34°14' E 135°06'0 0.1
2014-Nov-19 00:33N 34°15' E 135°07'0 0.1
2014-Nov-18 23:33N 34°15' E 135°06'0 0.0
2014-Nov-18 22:33N 34°15' E 135°06'15 7.3
2014-Nov-18 20:33N 34°28' E 135°13'1212.5
2014-Nov-18 19:33N 34°36' E 135°25'2 0.4
2014-Nov-18 15:22N 34°35' E 135°27'0 0.0
2014-Nov-18 12:33N 34°35' E 135°27'1 0.2
2014-Nov-18 06:33N 34°35' E 135°26'10 9.8
2014-Nov-18 05:32N 34°30' E 135°15'17 8.7
2014-Nov-18 03:33N 34°14' E 135°07'0 0.2
2014-Nov-18 02:33N 34°15' E 135°07'0 0.0
2014-Nov-18 01:33N 34°15' E 135°07'0 0.0
2014-Nov-18 00:33N 34°15' E 135°07'0 0.0
2014-Nov-17 23:34N 34°15' E 135°07'0 0.0
2014-Nov-17 22:33N 34°15' E 135°07'0 0.0
2014-Nov-17 21:33N 34°15' E 135°07'0 0.0
2014-Nov-17 20:33N 34°15' E 135°07'0 0.0
2014-Nov-17 19:33N 34°15' E 135°07'0 0.0
2014-Nov-17 18:33N 34°15' E 135°07'4 3.6
2014-Nov-17 17:33N 34°16' E 135°03'1312.8
2014-Nov-17 16:33N 34°27' E 135°11'1313.1
2014-Nov-17 15:33N 34°35' E 135°23'3 0.9
2014-Nov-17 12:15N 34°35' E 135°27'0 0.0
2014-Nov-16 05:28N 34°35' E 135°27'1 0.7
2014-Nov-16 04:33N 34°35' E 135°27'0 0.1
2014-Nov-16 03:33N 34°35' E 135°27'0 0.0
2014-Nov-16 02:33N 34°35' E 135°27'0 0.0
2014-Nov-16 01:33N 34°35' E 135°27'0 0.0
2014-Nov-16 00:32N 34°35' E 135°27'0 0.0
2014-Nov-15 23:32N 34°35' E 135°27'0 0.0
2014-Nov-15 22:31N 34°35' E 135°27'0 0.0
2014-Nov-15 21:31N 34°35' E 135°27'0 0.1
2014-Nov-15 20:33N 34°35' E 135°27'5 5.0
2014-Nov-15 19:33N 34°34' E 135°21'1211.8
2014-Nov-15 18:33N 34°26' E 135°11'1211.8
2014-Nov-15 17:32N 34°16' E 135°03'4 3.7
2014-Nov-15 16:33N 34°15' E 135°07'0 0.0
2014-Nov-15 15:33N 34°15' E 135°07'0 0.0
2014-Nov-15 14:33N 34°15' E 135°07'0 0.0
2014-Nov-15 13:33N 34°15' E 135°07'0 0.0
2014-Nov-15 12:33N 34°15' E 135°07'0 0.0
2014-Nov-15 11:33N 34°15' E 135°07'0 0.1
2014-Nov-15 10:31N 34°15' E 135°07'0 0.0
2014-Nov-15 09:33N 34°15' E 135°07'0 0.0
2014-Nov-15 08:33N 34°15' E 135°07'0 0.0
2014-Nov-15 07:33N 34°15' E 135°07'0 0.0
2014-Nov-15 06:32N 34°15' E 135°07'0 0.0
2014-Nov-15 05:32N 34°15' E 135°07'0 0.2
2014-Nov-15 04:33N 34°15' E 135°07'0 0.1
2014-Nov-15 03:33N 34°15' E 135°07'0 0.0
2014-Nov-15 02:33N 34°15' E 135°07'0 0.3
2014-Nov-15 01:33N 34°15' E 135°07'0 0.0
2014-Nov-15 00:30N 34°15' E 135°07'0 0.0
2014-Nov-14 23:33N 34°15' E 135°07'0 0.0
2014-Nov-14 22:33N 34°15' E 135°07'0 0.0
2014-Nov-14 21:33N 34°15' E 135°07'1 0.9
2014-Nov-14 20:33N 34°14' E 135°06'1010.5
2014-Nov-14 19:33N 34°24' E 135°09'1313.2
2014-Nov-14 18:33N 34°35' E 135°19'7 6.8
2014-Nov-14 17:32N 34°38' E 135°27'0 0.1
2014-Nov-14 16:34N 34°38' E 135°27'0 0.0
2014-Nov-14 15:34N 34°38' E 135°27'0 0.0
2014-Nov-14 14:28N 34°38' E 135°27'0 0.0
2014-Nov-14 12:21N 34°38' E 135°27'0 0.0
2014-Nov-14 00:34N 34°38' E 135°27'3 3.4
2014-Nov-13 23:33N 34°38' E 135°23'1211.6
2014-Nov-13 22:33N 34°29' E 135°14'1211.3
2014-Nov-13 21:26N 34°19' E 135°04'1010.8
2014-Nov-13 20:33N 34°10' E 135°02'238 8.4
2014-Nov-12 16:18N 35°07' E 139°43'810.2
2014-Nov-12 15:30N 35°15' E 139°46'1011.0
2014-Nov-12 14:33N 35°25' E 139°43'9 2.8
2014-Nov-12 11:29N 35°22' E 139°53'0 0.0
2014-Nov-12 10:24N 35°22' E 139°53'0 0.0
2014-Nov-12 09:29N 35°22' E 139°53'0 0.0
2014-Nov-12 08:32N 35°22' E 139°53'0 0.0
2014-Nov-12 06:33N 35°22' E 139°53'0 0.0
2014-Nov-12 05:34N 35°22' E 139°53'0 0.0
2014-Nov-12 01:21N 35°22' E 139°53'3 3.7
2014-Nov-12 00:33N 35°24' E 139°51'0 0.1
2014-Nov-11 23:32N 35°23' E 139°51'0 0.0
2014-Nov-11 22:33N 35°23' E 139°51'0 0.0
2014-Nov-11 21:33N 35°23' E 139°51'0 0.0
2014-Nov-11 20:33N 35°23' E 139°51'0 0.0
2014-Nov-11 19:28N 35°23' E 139°51'0 0.0
2014-Nov-11 18:33N 35°23' E 139°51'0 0.0
2014-Nov-11 17:29N 35°23' E 139°51'0 0.0
2014-Nov-11 16:33N 35°23' E 139°51'0 0.0
2014-Nov-11 15:33N 35°23' E 139°51'0 0.0
2014-Nov-11 14:33N 35°23' E 139°51'0 0.0
2014-Nov-11 13:33N 35°23' E 139°51'0 0.0
2014-Nov-11 12:32N 35°23' E 139°51'0 0.0
2014-Nov-11 11:33N 35°23' E 139°51'0 0.0
2014-Nov-11 10:34N 35°23' E 139°51'12 0.9
2014-Nov-10 21:30N 35°35' E 139°54'3 0.2
2014-Nov-09 23:29N 35°36' E 139°50'1 0.3
2014-Nov-09 21:04N 35°36' E 139°51'0 0.6
2014-Nov-09 20:33N 35°35' E 139°51'1010.4
2014-Nov-09 19:33N 35°25' E 139°47'  
Track history (hours):
 
Tides and Currents Weather Stations Pressure Air Temp Water Temp Dewpoint Dewpoint Depression Visibility Wind Speed Wind Dir Waves Ship Positions

Sankoushin

Last reported at 2014-Nov-19 16:30 UTC. Time now 2014-Nov-21 16:39 UTC.
Position N 34°37' E 134°55'.

Length 71 m; draft 4.2 m.

Type: Cargo ship. MMSI: 431000269.

Date/timePositionNaut miles runAvg speedWind from/ knotsBaromVisibWave heightAir tempDewpointWater temp
2014-Nov-19 16:30N 34°37' E 134°55'8 8.6
2014-Nov-19 15:33N 34°35' E 135°05'1110.8
2014-Nov-19 14:33N 34°24' E 135°04'10 9.6
2014-Nov-19 13:33N 34°15' E 135°05'2 1.7
2014-Nov-19 12:33N 34°15' E 135°07'0 0.0
2014-Nov-19 11:33N 34°15' E 135°07'0 0.0
2014-Nov-19 10:13N 34°15' E 135°07'0 0.1
2014-Nov-19 09:33N 34°15' E 135°07'0 0.0
2014-Nov-19 08:33N 34°15' E 135°07'0 0.0
2014-Nov-19 07:33N 34°15' E 135°07'0 0.0
2014-Nov-19 06:33N 34°15' E 135°07'0 0.0
2014-Nov-19 05:33N 34°15' E 135°07'0 0.0
2014-Nov-19 04:33N 34°15' E 135°07'1 0.5
2014-Nov-19 03:33N 34°14' E 135°07'0 0.1
2014-Nov-19 02:33N 34°14' E 135°06'0 0.0
2014-Nov-19 01:30N 34°14' E 135°06'0 0.1
2014-Nov-19 00:33N 34°15' E 135°07'0 0.1
2014-Nov-18 23:33N 34°15' E 135°06'0 0.0
2014-Nov-18 22:33N 34°15' E 135°06'15 7.3
2014-Nov-18 20:33N 34°28' E 135°13'1212.5
2014-Nov-18 19:33N 34°36' E 135°25'2 0.4
2014-Nov-18 15:22N 34°35' E 135°27'0 0.0
2014-Nov-18 12:33N 34°35' E 135°27'1 0.2
2014-Nov-18 06:33N 34°35' E 135°26'10 9.8
2014-Nov-18 05:32N 34°30' E 135°15'17 8.7
2014-Nov-18 03:33N 34°14' E 135°07'0 0.2
2014-Nov-18 02:33N 34°15' E 135°07'0 0.0
2014-Nov-18 01:33N 34°15' E 135°07'0 0.0
2014-Nov-18 00:33N 34°15' E 135°07'0 0.0
2014-Nov-17 23:34N 34°15' E 135°07'0 0.0
2014-Nov-17 22:33N 34°15' E 135°07'0 0.0
2014-Nov-17 21:33N 34°15' E 135°07'0 0.0
2014-Nov-17 20:33N 34°15' E 135°07'0 0.0
2014-Nov-17 19:33N 34°15' E 135°07'0 0.0
2014-Nov-17 18:33N 34°15' E 135°07'4 3.6
2014-Nov-17 17:33N 34°16' E 135°03'1312.8
2014-Nov-17 16:33N 34°27' E 135°11'1313.1
2014-Nov-17 15:33N 34°35' E 135°23'3 0.9
2014-Nov-17 12:15N 34°35' E 135°27'0 0.0
2014-Nov-16 05:28N 34°35' E 135°27'1 0.7
2014-Nov-16 04:33N 34°35' E 135°27'0 0.1
2014-Nov-16 03:33N 34°35' E 135°27'0 0.0
2014-Nov-16 02:33N 34°35' E 135°27'0 0.0
2014-Nov-16 01:33N 34°35' E 135°27'0 0.0
2014-Nov-16 00:32N 34°35' E 135°27'0 0.0
2014-Nov-15 23:32N 34°35' E 135°27'0 0.0
2014-Nov-15 22:31N 34°35' E 135°27'0 0.0
2014-Nov-15 21:31N 34°35' E 135°27'0 0.1
2014-Nov-15 20:33N 34°35' E 135°27'5 5.0
2014-Nov-15 19:33N 34°34' E 135°21'1211.8
2014-Nov-15 18:33N 34°26' E 135°11'1211.8
2014-Nov-15 17:32N 34°16' E 135°03'4 3.7
2014-Nov-15 16:33N 34°15' E 135°07'0 0.0
2014-Nov-15 15:33N 34°15' E 135°07'0 0.0
2014-Nov-15 14:33N 34°15' E 135°07'0 0.0
2014-Nov-15 13:33N 34°15' E 135°07'0 0.0
2014-Nov-15 12:33N 34°15' E 135°07'0 0.0
2014-Nov-15 11:33N 34°15' E 135°07'0 0.1
2014-Nov-15 10:31N 34°15' E 135°07'0 0.0
2014-Nov-15 09:33N 34°15' E 135°07'0 0.0
2014-Nov-15 08:33N 34°15' E 135°07'0 0.0
2014-Nov-15 07:33N 34°15' E 135°07'0 0.0
2014-Nov-15 06:32N 34°15' E 135°07'0 0.0
2014-Nov-15 05:32N 34°15' E 135°07'0 0.2
2014-Nov-15 04:33N 34°15' E 135°07'0 0.1
2014-Nov-15 03:33N 34°15' E 135°07'0 0.0
2014-Nov-15 02:33N 34°15' E 135°07'0 0.3
2014-Nov-15 01:33N 34°15' E 135°07'0 0.0
2014-Nov-15 00:30N 34°15' E 135°07'0 0.0
2014-Nov-14 23:33N 34°15' E 135°07'0 0.0
2014-Nov-14 22:33N 34°15' E 135°07'0 0.0
2014-Nov-14 21:33N 34°15' E 135°07'1 0.9
2014-Nov-14 20:33N 34°14' E 135°06'1010.5
2014-Nov-14 19:33N 34°24' E 135°09'1313.2
2014-Nov-14 18:33N 34°35' E 135°19'7 6.8
2014-Nov-14 17:32N 34°38' E 135°27'0 0.1
2014-Nov-14 16:34N 34°38' E 135°27'0 0.0
2014-Nov-14 15:34N 34°38' E 135°27'0 0.0
2014-Nov-14 14:28N 34°38' E 135°27'0 0.0
2014-Nov-14 12:21N 34°38' E 135°27'0 0.0
2014-Nov-14 00:34N 34°38' E 135°27'3 3.4
2014-Nov-13 23:33N 34°38' E 135°23'1211.6
2014-Nov-13 22:33N 34°29' E 135°14'1211.3
2014-Nov-13 21:26N 34°19' E 135°04'1010.8
2014-Nov-13 20:33N 34°10' E 135°02'238 8.4
2014-Nov-12 16:18N 35°07' E 139°43'810.2
2014-Nov-12 15:30N 35°15' E 139°46'1011.0
2014-Nov-12 14:33N 35°25' E 139°43'9 2.8
2014-Nov-12 11:29N 35°22' E 139°53'0 0.0
2014-Nov-12 10:24N 35°22' E 139°53'0 0.0
2014-Nov-12 09:29N 35°22' E 139°53'0 0.0
2014-Nov-12 08:32N 35°22' E 139°53'0 0.0
2014-Nov-12 06:33N 35°22' E 139°53'0 0.0
2014-Nov-12 05:34N 35°22' E 139°53'0 0.0
2014-Nov-12 01:21N 35°22' E 139°53'3 3.7
2014-Nov-12 00:33N 35°24' E 139°51'0 0.1
2014-Nov-11 23:32N 35°23' E 139°51'0 0.0
2014-Nov-11 22:33N 35°23' E 139°51'0 0.0
2014-Nov-11 21:33N 35°23' E 139°51'0 0.0
2014-Nov-11 20:33N 35°23' E 139°51'0 0.0
2014-Nov-11 19:28N 35°23' E 139°51'0 0.0
2014-Nov-11 18:33N 35°23' E 139°51'0 0.0
2014-Nov-11 17:29N 35°23' E 139°51'0 0.0
2014-Nov-11 16:33N 35°23' E 139°51'0 0.0
2014-Nov-11 15:33N 35°23' E 139°51'0 0.0
2014-Nov-11 14:33N 35°23' E 139°51'0 0.0
2014-Nov-11 13:33N 35°23' E 139°51'0 0.0
2014-Nov-11 12:32N 35°23' E 139°51'0 0.0
2014-Nov-11 11:33N 35°23' E 139°51'0 0.0
2014-Nov-11 10:34N 35°23' E 139°51'12 0.9
2014-Nov-10 21:30N 35°35' E 139°54'3 0.2
2014-Nov-09 23:29N 35°36' E 139°50'1 0.3
2014-Nov-09 21:04N 35°36' E 139°51'0 0.6
2014-Nov-09 20:33N 35°35' E 139°51'1010.4
2014-Nov-09 19:33N 35°25' E 139°47'  

Dump ship's entire track history